<?xml version="1.0" encoding="UTF-8" standalone="no" ?>
<gpx xmlns="http://www.topografix.com/GPX/1/1" xmlns:xsi="http://www.w3.org/2001/XMLSchema-instance" xsi:schemaLocation="http://www.topografix.com/GPX/1/1 http://www.topografix.com/GPX/1/1/gpx.xsd" version="1.1" creator="VisuGPX - https://www.visugpx.com">
  <metadata>
    <name>Circuit Lamotte 1</name>
    <desc><![CDATA[circuit autour de LAMOTTE1]]></desc>
  </metadata>
  <trk>
    <name><![CDATA[22-MARS-16 11:43:22 AM]]></name>
    <trkseg>
      <trkpt lat="43.23588" lon="3.10691">
        <ele>54.93</ele>
        <time>2016-03-22T10:23:20Z</time>
      </trkpt>
      <trkpt lat="43.23588" lon="3.10691">
        <ele>57.34</ele>
        <time>2016-03-22T10:23:21Z</time>
      </trkpt>
      <trkpt lat="43.23588" lon="3.10691">
        <ele>55.41</ele>
        <time>2016-03-22T10:23:25Z</time>
      </trkpt>
      <trkpt lat="43.23589" lon="3.1069">
        <ele>52.05</ele>
        <time>2016-03-22T10:23:29Z</time>
      </trkpt>
      <trkpt lat="43.23589" lon="3.10691">
        <ele>50.61</ele>
        <time>2016-03-22T10:23:31Z</time>
      </trkpt>
      <trkpt lat="43.23589" lon="3.10691">
        <ele>47.24</ele>
        <time>2016-03-22T10:23:34Z</time>
      </trkpt>
      <trkpt lat="43.23589" lon="3.10691">
        <ele>48.2</ele>
        <time>2016-03-22T10:23:35Z</time>
      </trkpt>
      <trkpt lat="43.2359" lon="3.10691">
        <ele>46.76</ele>
        <time>2016-03-22T10:23:38Z</time>
      </trkpt>
      <trkpt lat="43.2359" lon="3.1069">
        <ele>45.32</ele>
        <time>2016-03-22T10:23:40Z</time>
      </trkpt>
      <trkpt lat="43.2359" lon="3.1069">
        <ele>43.4</ele>
        <time>2016-03-22T10:23:43Z</time>
      </trkpt>
      <trkpt lat="43.2359" lon="3.1069">
        <ele>38.11</ele>
        <time>2016-03-22T10:23:47Z</time>
      </trkpt>
      <trkpt lat="43.2359" lon="3.1069">
        <ele>41.47</ele>
        <time>2016-03-22T10:23:48Z</time>
      </trkpt>
      <trkpt lat="43.23591" lon="3.1069">
        <ele>38.11</ele>
        <time>2016-03-22T10:23:58Z</time>
      </trkpt>
      <trkpt lat="43.23592" lon="3.1069">
        <ele>34.74</ele>
        <time>2016-03-22T10:24:12Z</time>
      </trkpt>
      <trkpt lat="43.23592" lon="3.10689">
        <ele>34.74</ele>
        <time>2016-03-22T10:24:13Z</time>
      </trkpt>
      <trkpt lat="43.23594" lon="3.10691">
        <ele>31.86</ele>
        <time>2016-03-22T10:24:35Z</time>
      </trkpt>
      <trkpt lat="43.23594" lon="3.10691">
        <ele>29.94</ele>
        <time>2016-03-22T10:24:59Z</time>
      </trkpt>
      <trkpt lat="43.23594" lon="3.10691">
        <ele>30.42</ele>
        <time>2016-03-22T10:25:20Z</time>
      </trkpt>
      <trkpt lat="43.23593" lon="3.10689">
        <ele>30.42</ele>
        <time>2016-03-22T10:25:38Z</time>
      </trkpt>
      <trkpt lat="43.23593" lon="3.10689">
        <ele>30.42</ele>
        <time>2016-03-22T10:26:00Z</time>
      </trkpt>
      <trkpt lat="43.23594" lon="3.10682">
        <ele>29.46</ele>
        <time>2016-03-22T10:26:08Z</time>
      </trkpt>
      <trkpt lat="43.23593" lon="3.10665">
        <ele>28.98</ele>
        <time>2016-03-22T10:26:23Z</time>
      </trkpt>
      <trkpt lat="43.23591" lon="3.10661">
        <ele>29.46</ele>
        <time>2016-03-22T10:26:34Z</time>
      </trkpt>
      <trkpt lat="43.23592" lon="3.10661">
        <ele>28.98</ele>
        <time>2016-03-22T10:26:49Z</time>
      </trkpt>
      <trkpt lat="43.2359" lon="3.10658">
        <ele>29.46</ele>
        <time>2016-03-22T10:27:01Z</time>
      </trkpt>
      <trkpt lat="43.23582" lon="3.10656">
        <ele>29.46</ele>
        <time>2016-03-22T10:27:05Z</time>
      </trkpt>
      <trkpt lat="43.23543" lon="3.10664">
        <ele>29.94</ele>
        <time>2016-03-22T10:27:20Z</time>
      </trkpt>
      <trkpt lat="43.23544" lon="3.10665">
        <ele>30.42</ele>
        <time>2016-03-22T10:27:21Z</time>
      </trkpt>
      <trkpt lat="43.23554" lon="3.10659">
        <ele>29.46</ele>
        <time>2016-03-22T10:27:27Z</time>
      </trkpt>
      <trkpt lat="43.23561" lon="3.10655">
        <ele>29.46</ele>
        <time>2016-03-22T10:27:33Z</time>
      </trkpt>
      <trkpt lat="43.23552" lon="3.10656">
        <ele>29.94</ele>
        <time>2016-03-22T10:27:36Z</time>
      </trkpt>
      <trkpt lat="43.23503" lon="3.10663">
        <ele>31.86</ele>
        <time>2016-03-22T10:27:53Z</time>
      </trkpt>
      <trkpt lat="43.23458" lon="3.1067">
        <ele>32.34</ele>
        <time>2016-03-22T10:28:08Z</time>
      </trkpt>
      <trkpt lat="43.23421" lon="3.10685">
        <ele>33.3</ele>
        <time>2016-03-22T10:28:22Z</time>
      </trkpt>
      <trkpt lat="43.23389" lon="3.10711">
        <ele>33.3</ele>
        <time>2016-03-22T10:28:36Z</time>
      </trkpt>
      <trkpt lat="43.23387" lon="3.1071">
        <ele>33.3</ele>
        <time>2016-03-22T10:28:37Z</time>
      </trkpt>
      <trkpt lat="43.23376" lon="3.1069">
        <ele>33.78</ele>
        <time>2016-03-22T10:28:43Z</time>
      </trkpt>
      <trkpt lat="43.2334" lon="3.10633">
        <ele>31.86</ele>
        <time>2016-03-22T10:28:56Z</time>
      </trkpt>
      <trkpt lat="43.23299" lon="3.10592">
        <ele>34.26</ele>
        <time>2016-03-22T10:29:09Z</time>
      </trkpt>
      <trkpt lat="43.23282" lon="3.10578">
        <ele>35.71</ele>
        <time>2016-03-22T10:29:18Z</time>
      </trkpt>
      <trkpt lat="43.23254" lon="3.10544">
        <ele>37.63</ele>
        <time>2016-03-22T10:29:35Z</time>
      </trkpt>
      <trkpt lat="43.23228" lon="3.10521">
        <ele>39.07</ele>
        <time>2016-03-22T10:29:49Z</time>
      </trkpt>
      <trkpt lat="43.23201" lon="3.10494">
        <ele>39.55</ele>
        <time>2016-03-22T10:30:03Z</time>
      </trkpt>
      <trkpt lat="43.23175" lon="3.10463">
        <ele>40.03</ele>
        <time>2016-03-22T10:30:16Z</time>
      </trkpt>
      <trkpt lat="43.23154" lon="3.10433">
        <ele>42.44</ele>
        <time>2016-03-22T10:30:30Z</time>
      </trkpt>
      <trkpt lat="43.23131" lon="3.10403">
        <ele>43.88</ele>
        <time>2016-03-22T10:30:44Z</time>
      </trkpt>
      <trkpt lat="43.23117" lon="3.10387">
        <ele>43.88</ele>
        <time>2016-03-22T10:30:54Z</time>
      </trkpt>
      <trkpt lat="43.23115" lon="3.10387">
        <ele>43.88</ele>
        <time>2016-03-22T10:30:55Z</time>
      </trkpt>
      <trkpt lat="43.23114" lon="3.10387">
        <ele>44.36</ele>
        <time>2016-03-22T10:30:56Z</time>
      </trkpt>
      <trkpt lat="43.23113" lon="3.10388">
        <ele>44.36</ele>
        <time>2016-03-22T10:30:57Z</time>
      </trkpt>
      <trkpt lat="43.23112" lon="3.1039">
        <ele>44.84</ele>
        <time>2016-03-22T10:30:58Z</time>
      </trkpt>
      <trkpt lat="43.23109" lon="3.10395">
        <ele>45.8</ele>
        <time>2016-03-22T10:31:12Z</time>
      </trkpt>
      <trkpt lat="43.23109" lon="3.10395">
        <ele>45.32</ele>
        <time>2016-03-22T10:31:42Z</time>
      </trkpt>
      <trkpt lat="43.23109" lon="3.10396">
        <ele>44.84</ele>
        <time>2016-03-22T10:31:49Z</time>
      </trkpt>
      <trkpt lat="43.23109" lon="3.10398">
        <ele>45.32</ele>
        <time>2016-03-22T10:31:50Z</time>
      </trkpt>
      <trkpt lat="43.23108" lon="3.10401">
        <ele>44.36</ele>
        <time>2016-03-22T10:31:51Z</time>
      </trkpt>
      <trkpt lat="43.23107" lon="3.10403">
        <ele>44.36</ele>
        <time>2016-03-22T10:31:52Z</time>
      </trkpt>
      <trkpt lat="43.23107" lon="3.10406">
        <ele>44.84</ele>
        <time>2016-03-22T10:31:53Z</time>
      </trkpt>
      <trkpt lat="43.23105" lon="3.10409">
        <ele>44.36</ele>
        <time>2016-03-22T10:31:54Z</time>
      </trkpt>
      <trkpt lat="43.23104" lon="3.10412">
        <ele>44.84</ele>
        <time>2016-03-22T10:31:55Z</time>
      </trkpt>
      <trkpt lat="43.23103" lon="3.10415">
        <ele>44.84</ele>
        <time>2016-03-22T10:31:56Z</time>
      </trkpt>
      <trkpt lat="43.23079" lon="3.10457">
        <ele>46.76</ele>
        <time>2016-03-22T10:32:11Z</time>
      </trkpt>
      <trkpt lat="43.2305" lon="3.10512">
        <ele>47.72</ele>
        <time>2016-03-22T10:32:29Z</time>
      </trkpt>
      <trkpt lat="43.23037" lon="3.10552">
        <ele>48.2</ele>
        <time>2016-03-22T10:32:41Z</time>
      </trkpt>
      <trkpt lat="43.23013" lon="3.10599">
        <ele>48.2</ele>
        <time>2016-03-22T10:32:57Z</time>
      </trkpt>
      <trkpt lat="43.22993" lon="3.10637">
        <ele>50.61</ele>
        <time>2016-03-22T10:33:11Z</time>
      </trkpt>
      <trkpt lat="43.22957" lon="3.10683">
        <ele>51.57</ele>
        <time>2016-03-22T10:33:28Z</time>
      </trkpt>
      <trkpt lat="43.22932" lon="3.10719">
        <ele>50.61</ele>
        <time>2016-03-22T10:33:39Z</time>
      </trkpt>
      <trkpt lat="43.22931" lon="3.10725">
        <ele>50.61</ele>
        <time>2016-03-22T10:33:40Z</time>
      </trkpt>
      <trkpt lat="43.2293" lon="3.1073">
        <ele>50.13</ele>
        <time>2016-03-22T10:33:41Z</time>
      </trkpt>
      <trkpt lat="43.22929" lon="3.10737">
        <ele>50.61</ele>
        <time>2016-03-22T10:33:42Z</time>
      </trkpt>
      <trkpt lat="43.22929" lon="3.10743">
        <ele>50.61</ele>
        <time>2016-03-22T10:33:43Z</time>
      </trkpt>
      <trkpt lat="43.22932" lon="3.10764">
        <ele>50.61</ele>
        <time>2016-03-22T10:33:46Z</time>
      </trkpt>
      <trkpt lat="43.22934" lon="3.10771">
        <ele>50.13</ele>
        <time>2016-03-22T10:33:47Z</time>
      </trkpt>
      <trkpt lat="43.22944" lon="3.10802">
        <ele>48.68</ele>
        <time>2016-03-22T10:33:51Z</time>
      </trkpt>
      <trkpt lat="43.22973" lon="3.10896">
        <ele>52.53</ele>
        <time>2016-03-22T10:34:06Z</time>
      </trkpt>
      <trkpt lat="43.22975" lon="3.10899">
        <ele>53.01</ele>
        <time>2016-03-22T10:34:07Z</time>
      </trkpt>
      <trkpt lat="43.22981" lon="3.10906">
        <ele>51.09</ele>
        <time>2016-03-22T10:34:10Z</time>
      </trkpt>
      <trkpt lat="43.23016" lon="3.1091">
        <ele>51.57</ele>
        <time>2016-03-22T10:34:22Z</time>
      </trkpt>
      <trkpt lat="43.23059" lon="3.10917">
        <ele>50.61</ele>
        <time>2016-03-22T10:34:32Z</time>
      </trkpt>
      <trkpt lat="43.231" lon="3.10927">
        <ele>47.72</ele>
        <time>2016-03-22T10:34:39Z</time>
      </trkpt>
      <trkpt lat="43.23144" lon="3.10946">
        <ele>43.88</ele>
        <time>2016-03-22T10:34:46Z</time>
      </trkpt>
      <trkpt lat="43.2316" lon="3.10955">
        <ele>40.99</ele>
        <time>2016-03-22T10:34:48Z</time>
      </trkpt>
      <trkpt lat="43.23185" lon="3.10968">
        <ele>39.55</ele>
        <time>2016-03-22T10:34:51Z</time>
      </trkpt>
      <trkpt lat="43.23193" lon="3.10974">
        <ele>40.03</ele>
        <time>2016-03-22T10:34:52Z</time>
      </trkpt>
      <trkpt lat="43.232" lon="3.10981">
        <ele>40.03</ele>
        <time>2016-03-22T10:34:53Z</time>
      </trkpt>
      <trkpt lat="43.23217" lon="3.11002">
        <ele>42.92</ele>
        <time>2016-03-22T10:34:56Z</time>
      </trkpt>
      <trkpt lat="43.23221" lon="3.11009">
        <ele>41.95</ele>
        <time>2016-03-22T10:34:57Z</time>
      </trkpt>
      <trkpt lat="43.23231" lon="3.11028">
        <ele>45.32</ele>
        <time>2016-03-22T10:35:01Z</time>
      </trkpt>
      <trkpt lat="43.23243" lon="3.11047">
        <ele>47.72</ele>
        <time>2016-03-22T10:35:11Z</time>
      </trkpt>
      <trkpt lat="43.23247" lon="3.11054">
        <ele>47.72</ele>
        <time>2016-03-22T10:35:17Z</time>
      </trkpt>
      <trkpt lat="43.2325" lon="3.1106">
        <ele>48.2</ele>
        <time>2016-03-22T10:35:21Z</time>
      </trkpt>
      <trkpt lat="43.23263" lon="3.11084">
        <ele>51.09</ele>
        <time>2016-03-22T10:35:39Z</time>
      </trkpt>
      <trkpt lat="43.23266" lon="3.11087">
        <ele>51.57</ele>
        <time>2016-03-22T10:35:45Z</time>
      </trkpt>
      <trkpt lat="43.23267" lon="3.11088">
        <ele>51.57</ele>
        <time>2016-03-22T10:35:46Z</time>
      </trkpt>
      <trkpt lat="43.23269" lon="3.1109">
        <ele>51.57</ele>
        <time>2016-03-22T10:35:47Z</time>
      </trkpt>
      <trkpt lat="43.23306" lon="3.11121">
        <ele>53.01</ele>
        <time>2016-03-22T10:36:03Z</time>
      </trkpt>
      <trkpt lat="43.23339" lon="3.11145">
        <ele>52.05</ele>
        <time>2016-03-22T10:36:16Z</time>
      </trkpt>
      <trkpt lat="43.23368" lon="3.11151">
        <ele>48.68</ele>
        <time>2016-03-22T10:36:26Z</time>
      </trkpt>
      <trkpt lat="43.23376" lon="3.11153">
        <ele>47.72</ele>
        <time>2016-03-22T10:36:28Z</time>
      </trkpt>
      <trkpt lat="43.23417" lon="3.11168">
        <ele>44.36</ele>
        <time>2016-03-22T10:36:38Z</time>
      </trkpt>
      <trkpt lat="43.23459" lon="3.11182">
        <ele>44.36</ele>
        <time>2016-03-22T10:36:50Z</time>
      </trkpt>
      <trkpt lat="43.23486" lon="3.11191">
        <ele>43.88</ele>
        <time>2016-03-22T10:37:00Z</time>
      </trkpt>
      <trkpt lat="43.23488" lon="3.11189">
        <ele>42.92</ele>
        <time>2016-03-22T10:37:01Z</time>
      </trkpt>
      <trkpt lat="43.23489" lon="3.11187">
        <ele>43.4</ele>
        <time>2016-03-22T10:37:02Z</time>
      </trkpt>
      <trkpt lat="43.23491" lon="3.11184">
        <ele>42.92</ele>
        <time>2016-03-22T10:37:03Z</time>
      </trkpt>
      <trkpt lat="43.23492" lon="3.11181">
        <ele>44.36</ele>
        <time>2016-03-22T10:37:04Z</time>
      </trkpt>
      <trkpt lat="43.23499" lon="3.11165">
        <ele>41.47</ele>
        <time>2016-03-22T10:37:08Z</time>
      </trkpt>
      <trkpt lat="43.235" lon="3.11161">
        <ele>41.47</ele>
        <time>2016-03-22T10:37:09Z</time>
      </trkpt>
      <trkpt lat="43.23515" lon="3.11119">
        <ele>39.55</ele>
        <time>2016-03-22T10:37:18Z</time>
      </trkpt>
      <trkpt lat="43.23531" lon="3.11066">
        <ele>36.19</ele>
        <time>2016-03-22T10:37:28Z</time>
      </trkpt>
      <trkpt lat="43.23533" lon="3.11061">
        <ele>37.15</ele>
        <time>2016-03-22T10:37:29Z</time>
      </trkpt>
      <trkpt lat="43.23535" lon="3.11055">
        <ele>37.15</ele>
        <time>2016-03-22T10:37:30Z</time>
      </trkpt>
      <trkpt lat="43.23549" lon="3.11024">
        <ele>36.19</ele>
        <time>2016-03-22T10:37:36Z</time>
      </trkpt>
      <trkpt lat="43.23566" lon="3.10989">
        <ele>34.74</ele>
        <time>2016-03-22T10:37:46Z</time>
      </trkpt>
      <trkpt lat="43.23565" lon="3.10986">
        <ele>36.19</ele>
        <time>2016-03-22T10:37:47Z</time>
      </trkpt>
      <trkpt lat="43.23552" lon="3.1096">
        <ele>34.26</ele>
        <time>2016-03-22T10:37:54Z</time>
      </trkpt>
      <trkpt lat="43.23546" lon="3.1095">
        <ele>34.26</ele>
        <time>2016-03-22T10:37:56Z</time>
      </trkpt>
      <trkpt lat="43.23529" lon="3.10904">
        <ele>32.82</ele>
        <time>2016-03-22T10:38:05Z</time>
      </trkpt>
      <trkpt lat="43.23532" lon="3.10899">
        <ele>32.82</ele>
        <time>2016-03-22T10:38:06Z</time>
      </trkpt>
      <trkpt lat="43.23546" lon="3.10868">
        <ele>33.3</ele>
        <time>2016-03-22T10:38:12Z</time>
      </trkpt>
      <trkpt lat="43.23577" lon="3.10808">
        <ele>29.46</ele>
        <time>2016-03-22T10:38:23Z</time>
      </trkpt>
      <trkpt lat="43.23607" lon="3.10753">
        <ele>28.5</ele>
        <time>2016-03-22T10:38:34Z</time>
      </trkpt>
      <trkpt lat="43.23626" lon="3.10717">
        <ele>26.09</ele>
        <time>2016-03-22T10:38:41Z</time>
      </trkpt>
      <trkpt lat="43.23634" lon="3.10703">
        <ele>26.57</ele>
        <time>2016-03-22T10:38:44Z</time>
      </trkpt>
      <trkpt lat="43.23646" lon="3.10675">
        <ele>27.05</ele>
        <time>2016-03-22T10:38:51Z</time>
      </trkpt>
      <trkpt lat="43.23646" lon="3.10673">
        <ele>26.57</ele>
        <time>2016-03-22T10:38:52Z</time>
      </trkpt>
      <trkpt lat="43.23645" lon="3.1067">
        <ele>26.09</ele>
        <time>2016-03-22T10:38:53Z</time>
      </trkpt>
      <trkpt lat="43.23642" lon="3.10666">
        <ele>26.09</ele>
        <time>2016-03-22T10:38:54Z</time>
      </trkpt>
      <trkpt lat="43.23638" lon="3.10661">
        <ele>26.09</ele>
        <time>2016-03-22T10:38:55Z</time>
      </trkpt>
      <trkpt lat="43.23603" lon="3.10651">
        <ele>26.57</ele>
        <time>2016-03-22T10:39:05Z</time>
      </trkpt>
      <trkpt lat="43.23592" lon="3.10657">
        <ele>27.53</ele>
        <time>2016-03-22T10:39:15Z</time>
      </trkpt>
      <trkpt lat="43.23592" lon="3.10658">
        <ele>28.02</ele>
        <time>2016-03-22T10:39:21Z</time>
      </trkpt>
      <trkpt lat="43.23592" lon="3.1066">
        <ele>28.02</ele>
        <time>2016-03-22T10:39:34Z</time>
      </trkpt>
      <trkpt lat="43.2359" lon="3.10662">
        <ele>27.53</ele>
        <time>2016-03-22T10:39:41Z</time>
      </trkpt>
      <trkpt lat="43.23591" lon="3.10666">
        <ele>28.02</ele>
        <time>2016-03-22T10:39:43Z</time>
      </trkpt>
      <trkpt lat="43.23591" lon="3.10667">
        <ele>27.53</ele>
        <time>2016-03-22T10:39:44Z</time>
      </trkpt>
      <trkpt lat="43.2359" lon="3.1068">
        <ele>28.02</ele>
        <time>2016-03-22T10:39:50Z</time>
      </trkpt>
      <trkpt lat="43.23589" lon="3.10684">
        <ele>28.5</ele>
        <time>2016-03-22T10:39:53Z</time>
      </trkpt>
      <trkpt lat="43.2359" lon="3.10685">
        <ele>28.02</ele>
        <time>2016-03-22T10:39:55Z</time>
      </trkpt>
      <trkpt lat="43.23589" lon="3.10686">
        <ele>28.98</ele>
        <time>2016-03-22T10:40:06Z</time>
      </trkpt>
      <trkpt lat="43.2359" lon="3.10689">
        <ele>28.02</ele>
        <time>2016-03-22T10:40:14Z</time>
      </trkpt>
      <trkpt lat="43.23591" lon="3.10692">
        <ele>28.5</ele>
        <time>2016-03-22T10:40:16Z</time>
      </trkpt>
      <trkpt lat="43.23595" lon="3.10686">
        <ele>27.05</ele>
        <time>2016-03-22T10:40:20Z</time>
      </trkpt>
      <trkpt lat="43.23594" lon="3.10684">
        <ele>27.05</ele>
        <time>2016-03-22T10:40:21Z</time>
      </trkpt>
      <trkpt lat="43.23593" lon="3.10672">
        <ele>27.53</ele>
        <time>2016-03-22T10:40:29Z</time>
      </trkpt>
      <trkpt lat="43.23596" lon="3.10667">
        <ele>27.05</ele>
        <time>2016-03-22T10:40:36Z</time>
      </trkpt>
      <trkpt lat="43.23594" lon="3.10664">
        <ele>27.05</ele>
        <time>2016-03-22T10:40:38Z</time>
      </trkpt>
      <trkpt lat="43.23595" lon="3.10654">
        <ele>27.05</ele>
        <time>2016-03-22T10:40:45Z</time>
      </trkpt>
      <trkpt lat="43.23598" lon="3.1065">
        <ele>27.53</ele>
        <time>2016-03-22T10:40:50Z</time>
      </trkpt>
      <trkpt lat="43.236" lon="3.1065">
        <ele>27.53</ele>
        <time>2016-03-22T10:40:52Z</time>
      </trkpt>
      <trkpt lat="43.23598" lon="3.1065">
        <ele>27.05</ele>
        <time>2016-03-22T10:40:55Z</time>
      </trkpt>
      <trkpt lat="43.23595" lon="3.1065">
        <ele>26.57</ele>
        <time>2016-03-22T10:40:58Z</time>
      </trkpt>
      <trkpt lat="43.2359" lon="3.10657">
        <ele>27.05</ele>
        <time>2016-03-22T10:41:10Z</time>
      </trkpt>
      <trkpt lat="43.2359" lon="3.10659">
        <ele>27.05</ele>
        <time>2016-03-22T10:41:11Z</time>
      </trkpt>
      <trkpt lat="43.23593" lon="3.10665">
        <ele>28.02</ele>
        <time>2016-03-22T10:41:14Z</time>
      </trkpt>
      <trkpt lat="43.23592" lon="3.10674">
        <ele>28.02</ele>
        <time>2016-03-22T10:41:18Z</time>
      </trkpt>
      <trkpt lat="43.23591" lon="3.10678">
        <ele>28.5</ele>
        <time>2016-03-22T10:41:20Z</time>
      </trkpt>
      <trkpt lat="43.23591" lon="3.10682">
        <ele>28.5</ele>
        <time>2016-03-22T10:41:23Z</time>
      </trkpt>
      <trkpt lat="43.2359" lon="3.1068">
        <ele>28.5</ele>
        <time>2016-03-22T10:41:36Z</time>
      </trkpt>
      <trkpt lat="43.23585" lon="3.10676">
        <ele>28.5</ele>
        <time>2016-03-22T10:41:57Z</time>
      </trkpt>
      <trkpt lat="43.23577" lon="3.10679">
        <ele>31.38</ele>
        <time>2016-03-22T10:42:12Z</time>
      </trkpt>
      <trkpt lat="43.23581" lon="3.10679">
        <ele>29.94</ele>
        <time>2016-03-22T10:42:32Z</time>
      </trkpt>
      <trkpt lat="43.23581" lon="3.10679">
        <ele>31.38</ele>
        <time>2016-03-22T10:43:00Z</time>
      </trkpt>
    </trkseg>
  </trk>
</gpx>